Pejucara, Brazil
Current Conditions -  °F | °C
As of 6:00 PM on Wednesday 26 Nov 2014 (Local Time) from SBPF Reporting Station
Scattered Clouds Scattered Clouds  
Wind Chill: 77°   Ceiling: Unl
Heat Index: 79°   Visibility: 6mi
Dew Point: 64°   Wind: 23mph
Humidity: 65%   Direction: 170°S
Pressure: 29.85"   Gusts: NA
Location:  28.4°S, 53.71°W
Report Text: SBPF 262000Z 17020KT 9999 SCT040 25/18 Q1011
Loading
Personal Weather Stations






























Interactive Weather Map New forecast layout! Learn more

10-Day Weather Forecast

Advertisements
Track Severe Weather on mobile